sensor_id;sensor_type;location;lat;lon;timestamp;pressure;altitude;pressure_sealevel;temperature;humidity
75455;BME280;64035;48.358;2.122;2023-02-10T00:00:50;102972.63;;;0.44;74.19
75455;BME280;64035;48.358;2.122;2023-02-10T00:01:53;102967.78;;;0.45;74.06
75455;BME280;64035;48.358;2.122;2023-02-10T00:02:57;102964.38;;;0.45;73.68
75455;BME280;64035;48.358;2.122;2023-02-10T00:04:00;102952.69;;;0.45;74.60
75455;BME280;64035;48.358;2.122;2023-02-10T00:05:02;102957.91;;;0.47;74.20
75455;BME280;64035;48.358;2.122;2023-02-10T00:06:07;102966.59;;;0.49;73.46
75455;BME280;64035;48.358;2.122;2023-02-10T00:07:10;102963.88;;;0.47;74.23
75455;BME280;64035;48.358;2.122;2023-02-10T00:08:13;102961.56;;;0.49;73.83
75455;BME280;64035;48.358;2.122;2023-02-10T00:09:17;102958.34;;;0.50;74.45
75455;BME280;64035;48.358;2.122;2023-02-10T00:10:20;102962.63;;;0.51;73.78
75455;BME280;64035;48.358;2.122;2023-02-10T00:11:23;102960.09;;;0.51;73.95
75455;BME280;64035;48.358;2.122;2023-02-10T00:12:46;102967.88;;;0.52;73.50
75455;BME280;64035;48.358;2.122;2023-02-10T00:13:49;102961.03;;;0.51;74.11
75455;BME280;64035;48.358;2.122;2023-02-10T00:14:52;102964.66;;;0.53;74.51
75455;BME280;64035;48.358;2.122;2023-02-10T00:16:00;102962.34;;;0.55;74.82
75455;BME280;64035;48.358;2.122;2023-02-10T00:17:04;102967.56;;;0.56;74.59
75455;BME280;64035;48.358;2.122;2023-02-10T00:18:07;102970.25;;;0.58;74.91
75455;BME280;64035;48.358;2.122;2023-02-10T00:19:11;102962.69;;;0.58;74.49
75455;BME280;64035;48.358;2.122;2023-02-10T00:20:14;102967.75;;;0.58;74.37
75455;BME280;64035;48.358;2.122;2023-02-10T00:21:17;102964.53;;;0.59;74.45
75455;BME280;64035;48.358;2.122;2023-02-10T00:22:20;102970.66;;;0.61;74.24
75455;BME280;64035;48.358;2.122;2023-02-10T00:23:23;102967.25;;;0.60;75.03
75455;BME280;64035;48.358;2.122;2023-02-10T00:24:27;102962.19;;;0.60;74.67
75455;BME280;64035;48.358;2.122;2023-02-10T00:25:30;102965.63;;;0.61;74.81
75455;BME280;64035;48.358;2.122;2023-02-10T00:26:33;102960.09;;;0.63;75.00
75455;BME280;64035;48.358;2.122;2023-02-10T00:27:36;102961.69;;;0.63;75.35
75455;BME280;64035;48.358;2.122;2023-02-10T00:28:39;102960.09;;;0.63;75.41
75455;BME280;64035;48.358;2.122;2023-02-10T00:29:43;102959.38;;;0.64;74.73
75455;BME280;64035;48.358;2.122;2023-02-10T00:30:46;102963.88;;;0.67;74.88
75455;BME280;64035;48.358;2.122;2023-02-10T00:31:50;102956.31;;;0.67;73.80
75455;BME280;64035;48.358;2.122;2023-02-10T00:32:53;102957.22;;;0.67;74.43
75455;BME280;64035;48.358;2.122;2023-02-10T00:33:56;102959.56;;;0.66;75.47
75455;BME280;64035;48.358;2.122;2023-02-10T00:34:59;102957.22;;;0.67;75.42
75455;BME280;64035;48.358;2.122;2023-02-10T00:36:06;102953.09;;;0.68;74.93
75455;BME280;64035;48.358;2.122;2023-02-10T00:37:10;102962.69;;;0.70;75.27
75455;BME280;64035;48.358;2.122;2023-02-10T00:38:13;102961.78;;;0.70;75.50
75455;BME280;64035;48.358;2.122;2023-02-10T00:39:16;102952.41;;;0.69;75.54
75455;BME280;64035;48.358;2.122;2023-02-10T00:40:19;102956.72;;;0.70;75.05
75455;BME280;64035;48.358;2.122;2023-02-10T00:41:23;102958.00;;;0.73;75.11
75455;BME280;64035;48.358;2.122;2023-02-10T00:42:26;102959.44;;;0.71;75.43
75455;BME280;64035;48.358;2.122;2023-02-10T00:43:30;102960.72;;;0.75;75.09
75455;BME280;64035;48.358;2.122;2023-02-10T00:44:33;102958.91;;;0.74;75.12
75455;BME280;64035;48.358;2.122;2023-02-10T00:45:36;102958.41;;;0.76;75.20
75455;BME280;64035;48.358;2.122;2023-02-10T00:46:39;102948.31;;;0.76;75.37
75455;BME280;64035;48.358;2.122;2023-02-10T00:47:42;102949.94;;;0.76;75.45
75455;BME280;64035;48.358;2.122;2023-02-10T00:48:46;102955.19;;;0.77;74.92
75455;BME280;64035;48.358;2.122;2023-02-10T00:49:49;102948.69;;;0.79;74.86
75455;BME280;64035;48.358;2.122;2023-02-10T00:50:52;102947.81;;;0.79;75.14
75455;BME280;64035;48.358;2.122;2023-02-10T00:51:55;102947.28;;;0.82;75.32
75455;BME280;64035;48.358;2.122;2023-02-10T00:52:58;102943.66;;;0.79;75.40
75455;BME280;64035;48.358;2.122;2023-02-10T00:54:01;102942.94;;;0.81;76.05
75455;BME280;64035;48.358;2.122;2023-02-10T00:55:04;102954.13;;;0.83;76.20
75455;BME280;64035;48.358;2.122;2023-02-10T00:56:09;102946.56;;;0.83;76.06
75455;BME280;64035;48.358;2.122;2023-02-10T00:57:13;102944.25;;;0.84;75.80
75455;BME280;64035;48.358;2.122;2023-02-10T00:58:16;102945.16;;;0.85;75.76
75455;BME280;64035;48.358;2.122;2023-02-10T00:59:19;102947.88;;;0.86;76.02
75455;BME280;64035;48.358;2.122;2023-02-10T01:00:22;102953.09;;;0.88;75.81
75455;BME280;64035;48.358;2.122;2023-02-10T01:01:25;102956.53;;;0.88;76.27
75455;BME280;64035;48.358;2.122;2023-02-10T01:02:28;102954.00;;;0.88;76.17
75455;BME280;64035;48.358;2.122;2023-02-10T01:03:32;102955.13;;;0.90;76.41
75455;BME280;64035;48.358;2.122;2023-02-10T01:04:36;102956.03;;;0.91;76.39
75455;BME280;64035;48.358;2.122;2023-02-10T01:05:39;102956.03;;;0.91;75.89
75455;BME280;64035;48.358;2.122;2023-02-10T01:06:43;102961.25;;;0.92;76.29
75455;BME280;64035;48.358;2.122;2023-02-10T01:07:46;102950.28;;;0.92;75.52
75455;BME280;64035;48.358;2.122;2023-02-10T01:08:49;102952.25;;;0.94;76.02
75455;BME280;64035;48.358;2.122;2023-02-10T01:09:52;102958.03;;;0.93;75.95
75455;BME280;64035;48.358;2.122;2023-02-10T01:12:02;102956.59;;;0.95;76.22
75455;BME280;64035;48.358;2.122;2023-02-10T01:13:07;102954.78;;;0.94;76.49
75455;BME280;64035;48.358;2.122;2023-02-10T01:14:11;102949.94;;;0.96;75.88
75455;BME280;64035;48.358;2.122;2023-02-10T01:15:14;102945.78;;;0.96;76.08
75455;BME280;64035;48.358;2.122;2023-02-10T01:16:17;102950.13;;;0.97;75.55
75455;BME280;64035;48.358;2.122;2023-02-10T01:17:20;102957.19;;;1.00;75.48
75455;BME280;64035;48.358;2.122;2023-02-10T01:18:23;102949.22;;;0.97;75.42
75455;BME280;64035;48.358;2.122;2023-02-10T01:19:26;102956.09;;;0.98;75.40
75455;BME280;64035;48.358;2.122;2023-02-10T01:20:30;102956.09;;;0.98;74.79
75455;BME280;64035;48.358;2.122;2023-02-10T01:21:33;102957.19;;;1.00;74.38
75455;BME280;64035;48.358;2.122;2023-02-10T01:22:39;102952.84;;;0.99;75.57
75455;BME280;64035;48.358;2.122;2023-02-10T01:23:42;102958.59;;;0.98;76.05
75455;BME280;64035;48.358;2.122;2023-02-10T01:24:46;102961.31;;;0.99;76.16
75455;BME280;64035;48.358;2.122;2023-02-10T01:25:48;102959.88;;;1.01;76.38
75455;BME280;64035;48.358;2.122;2023-02-10T01:26:52;102953.41;;;1.03;75.76
75455;BME280;64035;48.358;2.122;2023-02-10T01:27:55;102955.03;;;1.03;75.63
75455;BME280;64035;48.358;2.122;2023-02-10T01:28:57;102955.75;;;1.02;75.95
75455;BME280;64035;48.358;2.122;2023-02-10T01:30:02;102952.72;;;1.04;75.82
75455;BME280;64035;48.358;2.122;2023-02-10T01:31:11;102948.56;;;1.05;76.22
75455;BME280;64035;48.358;2.122;2023-02-10T01:32:14;102946.97;;;1.05;76.45
75455;BME280;64035;48.358;2.122;2023-02-10T01:33:17;102940.09;;;1.04;75.85
75455;BME280;64035;48.358;2.122;2023-02-10T01:34:20;102952.00;;;1.05;75.65
75455;BME280;64035;48.358;2.122;2023-02-10T01:35:23;102950.38;;;1.06;76.06
75455;BME280;64035;48.358;2.122;2023-02-10T01:36:26;102951.66;;;1.09;76.06
75455;BME280;64035;48.358;2.122;2023-02-10T01:37:29;102956.00;;;1.10;76.25
75455;BME280;64035;48.358;2.122;2023-02-10T01:38:33;102962.84;;;1.11;75.93
75455;BME280;64035;48.358;2.122;2023-02-10T01:39:36;102958.72;;;1.12;75.79
75455;BME280;64035;48.358;2.122;2023-02-10T01:40:39;102957.09;;;1.12;75.43
75455;BME280;64035;48.358;2.122;2023-02-10T01:41:43;102964.66;;;1.12;75.49
75455;BME280;64035;48.358;2.122;2023-02-10T01:42:45;102964.47;;;1.11;75.96
75455;BME280;64035;48.358;2.122;2023-02-10T01:45:33;102956.41;;;1.13;76.52
75455;BME280;64035;48.358;2.122;2023-02-10T01:46:37;102952.97;;;1.13;75.43
75455;BME280;64035;48.358;2.122;2023-02-10T01:47:42;102958.91;;;1.13;74.76
75455;BME280;64035;48.358;2.122;2023-02-10T01:48:46;102960.00;;;1.15;75.44
75455;BME280;64035;48.358;2.122;2023-02-10T01:49:50;102957.31;;;1.14;75.38
75455;BME280;64035;48.358;2.122;2023-02-10T01:50:57;102954.59;;;1.12;76.21
75455;BME280;64035;48.358;2.122;2023-02-10T01:52:07;102954.94;;;1.15;76.08
75455;BME280;64035;48.358;2.122;2023-02-10T01:53:11;102962.50;;;1.15;76.75
75455;BME280;64035;48.358;2.122;2023-02-10T01:54:18;102959.28;;;1.16;76.77
75455;BME280;64035;48.358;2.122;2023-02-10T01:55:28;102956.06;;;1.17;76.56
75455;BME280;64035;48.358;2.122;2023-02-10T01:56:36;102953.72;;;1.19;76.03
75455;BME280;64035;48.358;2.122;2023-02-10T01:57:42;102951.91;;;1.18;75.08
75455;BME280;64035;48.358;2.122;2023-02-10T01:58:46;102954.06;;;1.15;75.27
75455;BME280;64035;48.358;2.122;2023-02-10T01:59:50;102962.91;;;1.18;75.17
75455;BME280;64035;48.358;2.122;2023-02-10T02:00:54;102958.38;;;1.16;75.63
75455;BME280;64035;48.358;2.122;2023-02-10T02:01:58;102947.38;;;1.15;75.83
75455;BME280;64035;48.358;2.122;2023-02-10T02:03:04;102958.56;;;1.17;76.78
75455;BME280;64035;48.358;2.122;2023-02-10T02:04:07;102952.13;;;1.20;76.90
75455;BME280;64035;48.358;2.122;2023-02-10T02:06:57;102956.66;;;1.22;76.75
75455;BME280;64035;48.358;2.122;2023-02-10T02:08:23;102962.06;;;1.25;76.38
75455;BME280;64035;48.358;2.122;2023-02-10T02:09:27;102966.19;;;1.25;76.73
75455;BME280;64035;48.358;2.122;2023-02-10T02:11:03;102957.91;;;1.26;77.07
75455;BME280;64035;48.358;2.122;2023-02-10T02:12:34;102963.16;;;1.27;77.04
75455;BME280;64035;48.358;2.122;2023-02-10T02:18:06;102958.47;;;1.30;76.51
75455;BME280;64035;48.358;2.122;2023-02-10T02:23:15;102952.94;;;1.33;75.87
75455;BME280;64035;48.358;2.122;2023-02-10T02:24:21;102961.41;;;1.33;76.28
75455;BME280;64035;48.358;2.122;2023-02-10T02:31:45;102958.38;;;1.36;77.12
75455;BME280;64035;48.358;2.122;2023-02-10T02:33:22;102953.31;;;1.36;77.10
75455;BME280;64035;48.358;2.122;2023-02-10T02:34:35;102953.13;;;1.34;75.62
75455;BME280;64035;48.358;2.122;2023-02-10T02:35:45;102952.22;;;1.34;75.85
75455;BME280;64035;48.358;2.122;2023-02-10T02:37:00;102952.94;;;1.33;75.70
75455;BME280;64035;48.358;2.122;2023-02-10T02:38:04;102951.50;;;1.35;76.75
75455;BME280;64035;48.358;2.122;2023-02-10T02:39:08;102949.91;;;1.35;75.80
75455;BME280;64035;48.358;2.122;2023-02-10T02:40:13;102949.69;;;1.34;75.50
75455;BME280;64035;48.358;2.122;2023-02-10T02:41:25;102942.84;;;1.33;75.76
75455;BME280;64035;48.358;2.122;2023-02-10T02:42:31;102948.06;;;1.34;76.64
75455;BME280;64035;48.358;2.122;2023-02-10T02:43:36;102943.22;;;1.36;76.59
75455;BME280;64035;48.358;2.122;2023-02-10T02:44:40;102945.75;;;1.36;76.58
75455;BME280;64035;48.358;2.122;2023-02-10T02:45:56;102949.34;;;1.38;76.92
75455;BME280;64035;48.358;2.122;2023-02-10T02:47:13;102952.06;;;1.39;76.98
75455;BME280;64035;48.358;2.122;2023-02-10T02:49:50;102940.56;;;1.41;77.15
75455;BME280;64035;48.358;2.122;2023-02-10T02:53:09;102945.81;;;1.43;77.30
75455;BME280;64035;48.358;2.122;2023-02-10T02:54:19;102950.84;;;1.43;76.11
75455;BME280;64035;48.358;2.122;2023-02-10T02:55:34;102948.31;;;1.43;75.83
75455;BME280;64035;48.358;2.122;2023-02-10T02:59:46;102948.50;;;1.44;77.44
75455;BME280;64035;48.358;2.122;2023-02-10T03:00:51;102943.44;;;1.44;77.13
75455;BME280;64035;48.358;2.122;2023-02-10T03:02:03;102946.72;;;1.43;77.05
75455;BME280;64035;48.358;2.122;2023-02-10T03:03:08;102952.81;;;1.45;75.91
75455;BME280;64035;48.358;2.122;2023-02-10T03:04:13;102950.13;;;1.44;77.04
75455;BME280;64035;48.358;2.122;2023-02-10T03:05:19;102945.09;;;1.44;76.67
75455;BME280;64035;48.358;2.122;2023-02-10T03:06:24;102949.78;;;1.48;76.70
75455;BME280;64035;48.358;2.122;2023-02-10T03:07:27;102943.84;;;1.47;77.15
75455;BME280;64035;48.358;2.122;2023-02-10T03:08:33;102942.03;;;1.46;76.07
75455;BME280;64035;48.358;2.122;2023-02-10T03:09:37;102942.72;;;1.45;76.11
75455;BME280;64035;48.358;2.122;2023-02-10T03:10:40;102943.44;;;1.44;75.76
75455;BME280;64035;48.358;2.122;2023-02-10T03:11:44;102948.50;;;1.44;76.50
75455;BME280;64035;48.358;2.122;2023-02-10T03:12:47;102943.28;;;1.43;76.51
75455;BME280;64035;48.358;2.122;2023-02-10T03:13:50;102947.06;;;1.46;76.89
75455;BME280;64035;48.358;2.122;2023-02-10T03:14:54;102944.53;;;1.46;77.04
75455;BME280;64035;48.358;2.122;2023-02-10T03:15:58;102938.59;;;1.46;77.44
75455;BME280;64035;48.358;2.122;2023-02-10T03:17:02;102950.91;;;1.50;77.71
75455;BME280;64035;48.358;2.122;2023-02-10T03:18:05;102946.75;;;1.50;77.47
75455;BME280;64035;48.358;2.122;2023-02-10T03:19:08;102940.09;;;1.51;77.75
75455;BME280;64035;48.358;2.122;2023-02-10T03:20:11;102942.63;;;1.51;77.35
75455;BME280;64035;48.358;2.122;2023-02-10T03:21:14;102949.63;;;1.53;77.50
75455;BME280;64035;48.358;2.122;2023-02-10T03:22:17;102945.31;;;1.52;77.00
75455;BME280;64035;48.358;2.122;2023-02-10T03:23:20;102946.41;;;1.54;77.25
75455;BME280;64035;48.358;2.122;2023-02-10T03:24:23;102950.53;;;1.54;76.83
75455;BME280;64035;48.358;2.122;2023-02-10T03:25:27;102949.13;;;1.56;77.35
75455;BME280;64035;48.358;2.122;2023-02-10T03:26:30;102949.13;;;1.56;77.64
75455;BME280;64035;48.358;2.122;2023-02-10T03:27:34;102953.25;;;1.55;77.63
75455;BME280;64035;48.358;2.122;2023-02-10T03:28:37;102945.69;;;1.55;77.44
75455;BME280;64035;48.358;2.122;2023-02-10T03:29:40;102958.66;;;1.58;77.81
75455;BME280;64035;48.358;2.122;2023-02-10T03:30:44;102949.47;;;1.59;77.35
75455;BME280;64035;48.358;2.122;2023-02-10T03:31:52;102949.69;;;1.61;77.29
75455;BME280;64035;48.358;2.122;2023-02-10T03:32:55;102956.34;;;1.60;77.21
75455;BME280;64035;48.358;2.122;2023-02-10T03:33:58;102951.09;;;1.58;77.09
75455;BME280;64035;48.358;2.122;2023-02-10T03:35:01;102952.00;;;1.59;77.66
75455;BME280;64035;48.358;2.122;2023-02-10T03:36:04;102952.19;;;1.61;77.58
75455;BME280;64035;48.358;2.122;2023-02-10T03:37:07;102950.59;;;1.61;77.12
75455;BME280;64035;48.358;2.122;2023-02-10T03:38:12;102951.28;;;1.60;77.58
75455;BME280;64035;48.358;2.122;2023-02-10T03:39:15;102953.09;;;1.61;77.55
75455;BME280;64035;48.358;2.122;2023-02-10T03:40:18;102950.78;;;1.63;76.92
75455;BME280;64035;48.358;2.122;2023-02-10T03:41:21;102950.59;;;1.61;77.31
75455;BME280;64035;48.358;2.122;2023-02-10T03:42:24;102954.22;;;1.63;77.02
75455;BME280;64035;48.358;2.122;2023-02-10T03:43:27;102960.16;;;1.64;77.12
75455;BME280;64035;48.358;2.122;2023-02-10T03:44:30;102959.25;;;1.63;77.30
75455;BME280;64035;48.358;2.122;2023-02-10T03:45:34;102962.69;;;1.64;76.86
75455;BME280;64035;48.358;2.122;2023-02-10T03:46:37;102962.88;;;1.65;77.30
75455;BME280;64035;48.358;2.122;2023-02-10T03:47:39;102956.94;;;1.65;77.21
75455;BME280;64035;48.358;2.122;2023-02-10T03:48:43;102957.09;;;1.66;77.25
75455;BME280;64035;48.358;2.122;2023-02-10T03:49:46;102950.44;;;1.67;77.30
75455;BME280;64035;48.358;2.122;2023-02-10T03:50:49;102957.09;;;1.66;77.32
75455;BME280;64035;48.358;2.122;2023-02-10T03:51:52;102949.53;;;1.66;77.64
75455;BME280;64035;48.358;2.122;2023-02-10T03:52:55;102958.00;;;1.67;77.23
75455;BME280;64035;48.358;2.122;2023-02-10T03:53:58;102957.09;;;1.66;76.62
75455;BME280;64035;48.358;2.122;2023-02-10T03:55:00;102957.84;;;1.65;76.72
75455;BME280;64035;48.358;2.122;2023-02-10T03:56:04;102958.56;;;1.64;77.34
75455;BME280;64035;48.358;2.122;2023-02-10T03:57:07;102963.06;;;1.67;76.83
75455;BME280;64035;48.358;2.122;2023-02-10T03:58:09;102952.97;;;1.67;77.32
75455;BME280;64035;48.358;2.122;2023-02-10T03:59:12;102956.38;;;1.67;77.46
75455;BME280;64035;48.358;2.122;2023-02-10T04:00:15;102957.50;;;1.69;77.51
75455;BME280;64035;48.358;2.122;2023-02-10T04:01:19;102962.53;;;1.69;77.16
75455;BME280;64035;48.358;2.122;2023-02-10T04:02:22;102958.19;;;1.68;76.91
75455;BME280;64035;48.358;2.122;2023-02-10T04:03:25;102957.28;;;1.68;76.01
75455;BME280;64035;48.358;2.122;2023-02-10T04:04:28;102960.72;;;1.68;76.96
75455;BME280;64035;48.358;2.122;2023-02-10T04:05:31;102958.19;;;1.68;76.31
75455;BME280;64035;48.358;2.122;2023-02-10T04:06:34;102947.19;;;1.68;77.19
75455;BME280;64035;48.358;2.122;2023-02-10T04:07:37;102956.59;;;1.69;77.21
75455;BME280;64035;48.358;2.122;2023-02-10T04:08:40;102954.97;;;1.69;77.13
75455;BME280;64035;48.358;2.122;2023-02-10T04:09:43;102955.88;;;1.70;77.05
75455;BME280;64035;48.358;2.122;2023-02-10T04:10:46;102957.50;;;1.69;76.90
75455;BME280;64035;48.358;2.122;2023-02-10T04:11:49;102951.94;;;1.72;77.21
75455;BME280;64035;48.358;2.122;2023-02-10T04:12:53;102954.63;;;1.73;77.22
75455;BME280;64035;48.358;2.122;2023-02-10T04:13:56;102957.88;;;1.72;77.46
75455;BME280;64035;48.358;2.122;2023-02-10T04:14:59;102956.97;;;1.72;76.38
75455;BME280;64035;48.358;2.122;2023-02-10T04:16:13;102960.56;;;1.74;76.93
75455;BME280;64035;48.358;2.122;2023-02-10T04:17:17;102959.31;;;1.70;76.81
75455;BME280;64035;48.358;2.122;2023-02-10T04:18:20;102960.91;;;1.70;76.89
75455;BME280;64035;48.358;2.122;2023-02-10T04:19:23;102957.69;;;1.71;77.26
75455;BME280;64035;48.358;2.122;2023-02-10T04:20:26;102960.41;;;1.72;77.51
75455;BME280;64035;48.358;2.122;2023-02-10T04:21:29;102963.84;;;1.73;77.43
75455;BME280;64035;48.358;2.122;2023-02-10T04:22:32;102976.63;;;1.74;77.80
75455;BME280;64035;48.358;2.122;2023-02-10T04:23:36;102970.66;;;1.74;77.20
75455;BME280;64035;48.358;2.122;2023-02-10T04:24:39;102970.88;;;1.75;77.36
75455;BME280;64035;48.358;2.122;2023-02-10T04:25:42;102979.16;;;1.74;77.55
75455;BME280;64035;48.358;2.122;2023-02-10T04:26:45;102968.34;;;1.75;77.26
75455;BME280;64035;48.358;2.122;2023-02-10T04:27:48;102975.72;;;1.74;77.24
75455;BME280;64035;48.358;2.122;2023-02-10T04:28:51;102970.88;;;1.75;77.47
75455;BME280;64035;48.358;2.122;2023-02-10T04:29:54;102970.16;;;1.76;77.73
75455;BME280;64035;48.358;2.122;2023-02-10T04:30:59;102968.53;;;1.77;77.76
75455;BME280;64035;48.358;2.122;2023-02-10T04:32:02;102972.69;;;1.76;77.84
75455;BME280;64035;48.358;2.122;2023-02-10T04:33:06;102979.75;;;1.79;78.04
75455;BME280;64035;48.358;2.122;2023-02-10T04:34:09;102980.66;;;1.79;77.85
75455;BME280;64035;48.358;2.122;2023-02-10T04:35:12;102990.00;;;1.80;77.43
75455;BME280;64035;48.358;2.122;2023-02-10T04:36:15;102984.94;;;1.80;77.22
75455;BME280;64035;48.358;2.122;2023-02-10T04:37:18;102981.34;;;1.78;77.29
75455;BME280;64035;48.358;2.122;2023-02-10T04:38:22;102983.16;;;1.79;77.25
75455;BME280;64035;48.358;2.122;2023-02-10T04:39:25;102991.66;;;1.80;76.60
75455;BME280;64035;48.358;2.122;2023-02-10T04:40:29;102992.16;;;1.77;76.68
75455;BME280;64035;48.358;2.122;2023-02-10T04:41:32;102985.50;;;1.78;77.22
75455;BME280;64035;48.358;2.122;2023-02-10T04:42:35;102988.03;;;1.78;76.77
75455;BME280;64035;48.358;2.122;2023-02-10T04:43:38;102986.22;;;1.77;76.57
75455;BME280;64035;48.358;2.122;2023-02-10T04:44:42;102983.69;;;1.77;77.11
75455;BME280;64035;48.358;2.122;2023-02-10T04:45:45;102988.94;;;1.78;76.58
75455;BME280;64035;48.358;2.122;2023-02-10T04:46:48;102987.13;;;1.77;76.56
75455;BME280;64035;48.358;2.122;2023-02-10T04:47:52;102982.78;;;1.76;77.01
75455;BME280;64035;48.358;2.122;2023-02-10T04:48:56;102986.41;;;1.78;77.15
75455;BME280;64035;48.358;2.122;2023-02-10T04:49:59;102984.59;;;1.77;76.88
75455;BME280;64035;48.358;2.122;2023-02-10T04:51:07;102987.31;;;1.79;76.74
75455;BME280;64035;48.358;2.122;2023-02-10T04:52:10;102983.88;;;1.78;76.60
75455;BME280;64035;48.358;2.122;2023-02-10T04:53:13;102979.53;;;1.77;76.93
75455;BME280;64035;48.358;2.122;2023-02-10T04:54:16;102984.06;;;1.80;77.41
75455;BME280;64035;48.358;2.122;2023-02-10T04:55:19;102987.31;;;1.79;76.88
75455;BME280;64035;48.358;2.122;2023-02-10T04:56:23;102978.81;;;1.78;76.23
75455;BME280;64035;48.358;2.122;2023-02-10T04:57:26;102985.69;;;1.79;76.07
75455;BME280;64035;48.358;2.122;2023-02-10T04:58:30;102982.97;;;1.78;76.92
75455;BME280;64035;48.358;2.122;2023-02-10T04:59:33;102993.06;;;1.78;76.08
75455;BME280;64035;48.358;2.122;2023-02-10T05:00:36;102988.22;;;1.79;76.92
75455;BME280;64035;48.358;2.122;2023-02-10T05:01:39;102990.19;;;1.82;77.09
75455;BME280;64035;48.358;2.122;2023-02-10T05:02:42;102986.75;;;1.81;77.45
75455;BME280;64035;48.358;2.122;2023-02-10T05:03:45;102989.47;;;1.83;77.38
75455;BME280;64035;48.358;2.122;2023-02-10T05:04:48;102980.28;;;1.83;77.60
75455;BME280;64035;48.358;2.122;2023-02-10T05:05:51;102988.06;;;1.85;77.30
75455;BME280;64035;48.358;2.122;2023-02-10T05:06:54;102993.31;;;1.86;77.55
75455;BME280;64035;48.358;2.122;2023-02-10T05:08:00;102988.25;;;1.86;77.52
75455;BME280;64035;48.358;2.122;2023-02-10T05:09:03;102984.13;;;1.87;77.18
75455;BME280;64035;48.358;2.122;2023-02-10T05:10:07;102993.47;;;1.88;77.74
75455;BME280;64035;48.358;2.122;2023-02-10T05:11:12;102996.19;;;1.89;77.68
75455;BME280;64035;48.358;2.122;2023-02-10T05:12:16;102998.91;;;1.91;77.76
75455;BME280;64035;48.358;2.122;2023-02-10T05:13:19;102997.81;;;1.89;77.56
75455;BME280;64035;48.358;2.122;2023-02-10T05:14:22;103000.53;;;1.90;77.83
75455;BME280;64035;48.358;2.122;2023-02-10T05:15:26;103004.66;;;1.90;77.99
75455;BME280;64035;48.358;2.122;2023-02-10T05:16:29;103002.16;;;1.90;77.37
75455;BME280;64035;48.358;2.122;2023-02-10T05:17:31;103009.00;;;1.91;77.44
75455;BME280;64035;48.358;2.122;2023-02-10T05:18:34;103009.00;;;1.91;77.56
75455;BME280;64035;48.358;2.122;2023-02-10T05:19:38;103004.88;;;1.91;77.83
75455;BME280;64035;48.358;2.122;2023-02-10T05:20:41;103003.44;;;1.93;78.30
75455;BME280;64035;48.358;2.122;2023-02-10T05:21:43;103006.88;;;1.94;77.90
75455;BME280;64035;48.358;2.122;2023-02-10T05:22:46;103006.88;;;1.94;77.62
75455;BME280;64035;48.358;2.122;2023-02-10T05:23:49;103001.81;;;1.94;78.02
75455;BME280;64035;48.358;2.122;2023-02-10T05:24:52;103010.31;;;1.94;77.83
75455;BME280;64035;48.358;2.122;2023-02-10T05:25:56;103012.28;;;1.97;77.69
75455;BME280;64035;48.358;2.122;2023-02-10T05:26:59;103010.66;;;1.98;77.92
75455;BME280;64035;48.358;2.122;2023-02-10T05:28:02;103012.28;;;1.97;77.76
75455;BME280;64035;48.358;2.122;2023-02-10T05:29:05;103012.28;;;1.97;77.51
75455;BME280;64035;48.358;2.122;2023-02-10T05:30:10;103009.06;;;1.98;77.64
75455;BME280;64035;48.358;2.122;2023-02-10T05:31:15;103008.34;;;1.99;78.11
75455;BME280;64035;48.358;2.122;2023-02-10T05:32:19;103014.09;;;1.98;78.05
75455;BME280;64035;48.358;2.122;2023-02-10T05:33:22;103009.97;;;1.99;77.92
75455;BME280;64035;48.358;2.122;2023-02-10T05:34:25;103009.25;;;2.00;76.93
75455;BME280;64035;48.358;2.122;2023-02-10T05:35:29;103011.56;;;1.98;77.22
75455;BME280;64035;48.358;2.122;2023-02-10T05:36:32;103015.00;;;1.99;76.87
75455;BME280;64035;48.358;2.122;2023-02-10T05:37:35;103015.72;;;1.98;76.40
75455;BME280;64035;48.358;2.122;2023-02-10T05:38:38;103011.19;;;1.95;76.76
75455;BME280;64035;48.358;2.122;2023-02-10T05:40:02;103008.66;;;1.95;76.17
75455;BME280;64035;48.358;2.122;2023-02-10T05:41:05;103011.38;;;1.96;76.88
75455;BME280;64035;48.358;2.122;2023-02-10T05:42:08;103010.31;;;1.94;76.87
75455;BME280;64035;48.358;2.122;2023-02-10T05:43:11;103013.00;;;1.96;77.29
75455;BME280;64035;48.358;2.122;2023-02-10T05:44:14;103013.00;;;1.96;77.40
75455;BME280;64035;48.358;2.122;2023-02-10T05:45:17;103013.00;;;1.96;77.90
75455;BME280;64035;48.358;2.122;2023-02-10T05:46:20;103025.31;;;2.00;77.81
75455;BME280;64035;48.358;2.122;2023-02-10T05:47:23;103020.78;;;1.98;77.24
75455;BME280;64035;48.358;2.122;2023-02-10T05:48:26;103020.25;;;2.00;77.48
75455;BME280;64035;48.358;2.122;2023-02-10T05:49:29;103017.72;;;2.00;77.61
75455;BME280;64035;48.358;2.122;2023-02-10T05:50:32;103021.16;;;2.01;77.59
75455;BME280;64035;48.358;2.122;2023-02-10T05:51:35;103028.19;;;2.03;77.43
75455;BME280;64035;48.358;2.122;2023-02-10T05:52:39;103029.81;;;2.03;77.65
75455;BME280;64035;48.358;2.122;2023-02-10T05:53:42;103029.09;;;2.04;78.02
75455;BME280;64035;48.358;2.122;2023-02-10T05:54:45;103028.19;;;2.03;77.87
75455;BME280;64035;48.358;2.122;2023-02-10T05:55:48;103030.72;;;2.03;78.31
75455;BME280;64035;48.358;2.122;2023-02-10T05:56:51;103028.38;;;2.05;77.87
75455;BME280;64035;48.358;2.122;2023-02-10T05:57:54;103025.66;;;2.03;77.32
75455;BME280;64035;48.358;2.122;2023-02-10T05:58:57;103022.97;;;2.02;76.62
75455;BME280;64035;48.358;2.122;2023-02-10T06:00:02;103027.28;;;2.03;76.90
75455;BME280;64035;48.358;2.122;2023-02-10T06:01:15;103018.63;;;2.01;76.48
75455;BME280;64035;48.358;2.122;2023-02-10T06:02:17;103028.03;;;2.02;76.71
75455;BME280;64035;48.358;2.122;2023-02-10T06:03:20;103026.22;;;2.01;77.22
75455;BME280;64035;48.358;2.122;2023-02-10T06:04:23;103022.78;;;2.00;77.19
75455;BME280;64035;48.358;2.122;2023-02-10T06:05:27;103025.31;;;2.00;77.09
75455;BME280;64035;48.358;2.122;2023-02-10T06:06:30;103023.84;;;2.02;76.78
75455;BME280;64035;48.358;2.122;2023-02-10T06:07:32;103022.97;;;2.02;76.95